Wetterdaten: Woche 07.02.11 - 13.02.11 (KW6)
Datum Zeit Temp. A. Feuchte A. Luftdruck Regen Wind Richtung Taupunkt Windchill Windben
07.02.2011 00:00 11,3 C 48 % 1023,4 hPa 0,0 l/m 3,2 km/h NW 0,6 C 11,3 C 11,3 km/h
07.02.2011 01:00 10,9 C 49 % 1023,4 hPa 0,0 l/m 4,8 km/h W-NW 0,7 C 10,9 C 16,9 km/h
07.02.2011 02:00 9,9 C 51 % 1023,5 hPa 0,0 l/m 1,6 km/h NO 0,1 C 9,9 C 9,6 km/h
07.02.2011 03:00 9,4 C 51 % 1023,1 hPa 0,0 l/m 4,8 km/h NW -0,3 C 9,4 C 11,3 km/h
07.02.2011 04:00 11,5 C 43 % 1022,9 hPa 0,0 l/m 8,9 km/h W -0,8 C 10,1 C 21,7 km/h
07.02.2011 05:00 11,7 C 39 % 1022,7 hPa 0,0 l/m 9,7 km/h W -2,0 C 9,6 C 26,5 km/h
07.02.2011 06:00 11,7 C 37 % 1022,4 hPa 0,0 l/m 8,9 km/h W-NW -2,5 C 10,1 C 27,4 km/h
07.02.2011 07:00 11,5 C 37 % 1022,1 hPa 0,0 l/m 9,6 km/h W -2,7 C 9,5 C 33,8 km/h
07.02.2011 08:00 12,0 C 35 % 1022,0 hPa 0,0 l/m 9,7 km/h W -3,2 C 9,9 C 24,9 km/h
07.02.2011 09:00 13,3 C 30 % 1022,0 hPa 0,0 l/m 8,9 km/h NW -3,8 C 11,9 C 23,8 km/h
07.02.2011 10:00 14,6 C 27 % 1022,4 hPa 0,0 l/m 9,8 km/h SW -4,1 C 12,8 C 28,2 km/h
07.02.2011 11:00 16,2 C 24 % 1022,5 hPa 0,0 l/m 9,5 km/h W-SW -4,4 C 14,7 C 27,0 km/h
07.02.2011 12:00 17,5 C 23 % 1021,9 hPa 0,0 l/m 5,8 km/h SW -3,8 C 17,2 C 16,9 km/h
07.02.2011 13:00 17,5 C 29 % 1021,3 hPa 0,0 l/m 2,1 km/h S -0,8 C 17,5 C 8,0 km/h
07.02.2011 14:00 16,9 C 37 % 1021,1 hPa 0,0 l/m 2,7 km/h O-SO 2,0 C 16,9 C 10,5 km/h
07.02.2011 15:00 14,3 C 47 % 1021,0 hPa 0,0 l/m 3,9 km/h O-SO 3,2 C 14,3 C 8,1 km/h
07.02.2011 16:00 12,5 C 55 % 1021,0 hPa 0,0 l/m 1,9 km/h O 3,6 C 12,5 C 5,2 km/h
07.02.2011 17:00 9,5 C 60 % 1021,2 hPa 0,0 l/m 0,0 km/h N 2,0 C 9,5 C 0,0 km/h
07.02.2011 18:00 5,9 C 69 % 1021,3 hPa 0,0 l/m 0,0 km/h N 0,6 C 5,9 C 1,2 km/h
07.02.2011 19:00 3,6 C 75 % 1021,2 hPa 0,0 l/m 0,0 km/h N -0,4 C 3,6 C 1,6 km/h
07.02.2011 20:00 3,4 C 75 % 1020,8 hPa 0,0 l/m 1,0 km/h SW -0,6 C 3,4 C 7,2 km/h
07.02.2011 21:00 3,6 C 70 % 1020,5 hPa 0,0 l/m 0,6 km/h SW -1,4 C 3,6 C 5,6 km/h
07.02.2011 22:00 3,6 C 64 % 1020,1 hPa 0,0 l/m 0,8 km/h N -2,7 C 3,6 C 4,0 km/h
07.02.2011 23:00 1,8 C 67 % 1019,7 hPa 0,0 l/m 0,2 km/h N -3,7 C 1,8 C 2,8 km/h
08.02.2011 00:00 0,3 C 71 % 1019,5 hPa 0,0 l/m 0,0 km/h N -4,4 C 0,3 C 2,0 km/h
08.02.2011 01:00 -1,2 C 76 % 1019,3 hPa 0,0 l/m 0,1 km/h N -5,0 C -1,2 C 1,2 km/h
08.02.2011 02:00 -1,9 C 79 % 1019,1 hPa 0,0 l/m 0,2 km/h N -5,0 C -1,9 C 2,0 km/h
08.02.2011 03:00 -2,0 C 80 % 1018,6 hPa 0,0 l/m 0,1 km/h N -5,0 C -2,0 C 2,0 km/h
08.02.2011 04:00 -2,8 C 80 % 1018,7 hPa 0,0 l/m 0,0 km/h N -5,7 C -2,8 C 1,2 km/h
08.02.2011 05:00 -3,1 C 82 % 1018,6 hPa 0,0 l/m 0,5 km/h N-NW -5,9 C -3,1 C 3,2 km/h
08.02.2011 06:00 -2,4 C 83 % 1018,2 hPa 0,0 l/m 1,3 km/h O-NO -4,9 C -2,4 C 6,4 km/h
08.02.2011 07:00 3,8 C 60 % 1018,0 hPa 0,0 l/m 6,0 km/h NO -3,4 C 3,6 C 22,5 km/h
08.02.2011 08:00 11,0 C 36 % 1018,0 hPa 0,0 l/m 7,8 km/h N -3,7 C 10,1 C 24,5 km/h
08.02.2011 09:00 11,8 C 35 % 1018,8 hPa 0,0 l/m 7,1 km/h O-NO -3,0 C 10,9 C 23,7 km/h
08.02.2011 10:00 11,7 C 37 % 1019,4 hPa 0,0 l/m 14,3 km/h W-SW -2,6 C 7,5 C 34,6 km/h
08.02.2011 11:00 12,2 C 36 % 1020,1 hPa 0,0 l/m 14,6 km/h W -2,5 C 7,9 C 35,8 km/h
08.02.2011 12:00 13,0 C 39 % 1019,6 hPa 0,0 l/m 12,3 km/h W-NW -0,5 C 9,9 C 29,0 km/h
08.02.2011 13:00 13,3 C 46 % 1019,6 hPa 0,0 l/m 13,5 km/h W 1,8 C 9,7 C 33,4 km/h
08.02.2011 14:00 12,3 C 49 % 1020,2 hPa 0,0 l/m 12,9 km/h NW 1,9 C 8,9 C 33,0 km/h
08.02.2011 15:00 10,9 C 49 % 1021,0 hPa 0,0 l/m 7,9 km/h NW 0,7 C 9,9 C 22,1 km/h
08.02.2011 16:00 10,0 C 54 % 1021,3 hPa 0,0 l/m 7,1 km/h N-NW 0,9 C 9,4 C 18,1 km/h
08.02.2011 17:00 9,2 C 59 % 1022,1 hPa 0,0 l/m 5,9 km/h NW 1,7 C 9,1 C 13,7 km/h
08.02.2011 18:00 8,6 C 62 % 1022,8 hPa 0,0 l/m 4,6 km/h W-NW 1,7 C 8,6 C 13,3 km/h
08.02.2011 19:00 8,2 C 64 % 1023,0 hPa 0,0 l/m 3,9 km/h NW 1,8 C 8,2 C 10,4 km/h
08.02.2011 20:00 7,6 C 66 % 1023,3 hPa 0,0 l/m 3,4 km/h NW 1,7 C 7,6 C 9,3 km/h
08.02.2011 21:00 6,4 C 70 % 1023,7 hPa 0,0 l/m 2,3 km/h NW 1,3 C 6,4 C 6,4 km/h
08.02.2011 22:00 6,3 C 71 % 1023,9 hPa 0,0 l/m 4,1 km/h W-NW 1,5 C 6,3 C 10,9 km/h
08.02.2011 23:00 5,9 C 71 % 1024,0 hPa 0,0 l/m 2,8 km/h W-NW 1,1 C 5,9 C 8,0 km/h
09.02.2011 00:00 5,3 C 72 % 1024,1 hPa 0,0 l/m 0,8 km/h W-NW 0,7 C 5,3 C 4,8 km/h
09.02.2011 01:00 4,0 C 75 % 1024,2 hPa 0,0 l/m 0,6 km/h N 0,0 C 4,0 C 2,8 km/h
09.02.2011 02:00 2,7 C 78 % 1024,3 hPa 0,0 l/m 0,2 km/h N -0,8 C 2,7 C 2,0 km/h
09.02.2011 03:00 1,8 C 81 % 1024,2 hPa 0,0 l/m 0,1 km/h N -1,1 C 1,8 C 2,0 km/h
09.02.2011 04:00 0,3 C 82 % 1024,3 hPa 0,0 l/m 0,0 km/h N -2,4 C 0,3 C 0,4 km/h
09.02.2011 05:00 -1,0 C 83 % 1024,3 hPa 0,0 l/m 0,0 km/h N -3,4 C -1,0 C 0,4 km/h
09.02.2011 06:00 -1,5 C 84 % 1024,4 hPa 0,0 l/m 0,0 km/h N -3,8 C -1,5 C 0,0 km/h
09.02.2011 07:00 -1,7 C 84 % 1024,7 hPa 0,0 l/m 0,0 km/h N -4,1 C -1,7 C 0,0 km/h
09.02.2011 08:00 -0,9 C 84 % 1025,1 hPa 0,0 l/m 0,3 km/h SW -3,3 C -0,9 C 3,2 km/h
09.02.2011 09:00 2,7 C 84 % 1025,0 hPa 0,0 l/m 1,3 km/h O-SO 0,2 C 2,7 C 5,6 km/h
09.02.2011 10:00 4,7 C 80 % 1025,0 hPa 0,0 l/m 2,0 km/h O 1,6 C 4,7 C 5,2 km/h
09.02.2011 11:00 6,3 C 71 % 1024,7 hPa 0,0 l/m 1,0 km/h O-SO 1,5 C 6,3 C 4,0 km/h
09.02.2011 12:00 8,0 C 61 % 1024,0 hPa 0,0 l/m 1,7 km/h NO 0,9 C 8,0 C 6,0 km/h
09.02.2011 13:00 9,1 C 49 % 1023,7 hPa 0,0 l/m 5,7 km/h N -1,2 C 9,0 C 13,3 km/h
09.02.2011 14:00 9,1 C 41 % 1023,6 hPa 0,0 l/m 5,7 km/h NO -3,7 C 9,1 C 14,1 km/h
09.02.2011 15:00 8,8 C 37 % 1023,7 hPa 0,0 l/m 4,5 km/h N-NW -5,0 C 8,8 C 12,1 km/h
09.02.2011 16:00 7,9 C 40 % 1023,8 hPa 0,0 l/m 4,4 km/h N-NW -5,0 C 7,9 C 10,5 km/h
09.02.2011 17:00 6,4 C 46 % 1023,8 hPa 0,0 l/m 0,5 km/h N -4,4 C 6,4 C 2,8 km/h
09.02.2011 18:00 3,0 C 55 % 1024,6 hPa 0,0 l/m 0,0 km/h N -5,3 C 3,0 C 0,4 km/h
09.02.2011 19:00 0,8 C 64 % 1025,1 hPa 0,0 l/m 0,1 km/h N -5,3 C 0,8 C 1,6 km/h
09.02.2011 20:00 -0,3 C 68 % 1025,2 hPa 0,0 l/m 0,1 km/h N -5,6 C -0,3 C 2,0 km/h
09.02.2011 21:00 -0,7 C 72 % 1025,2 hPa 0,0 l/m 0,8 km/h SW -5,1 C -0,7 C 4,8 km/h
09.02.2011 22:00 0,4 C 69 % 1025,4 hPa 0,0 l/m 1,5 km/h W-SW -4,6 C 0,4 C 5,6 km/h
09.02.2011 23:00 0,1 C 70 % 1025,4 hPa 0,0 l/m 1,1 km/h SW -4,7 C 0,1 C 6,4 km/h
10.02.2011 00:00 -0,7 C 70 % 1025,6 hPa 0,0 l/m 0,1 km/h N -5,5 C -0,7 C 2,4 km/h
10.02.2011 01:00 -2,2 C 73 % 1025,7 hPa 0,0 l/m 0,0 km/h N -6,3 C -2,2 C 1,2 km/h
10.02.2011 02:00 -2,4 C 78 % 1025,7 hPa 0,0 l/m 0,1 km/h N -5,7 C -2,4 C 1,2 km/h
10.02.2011 03:00 -2,7 C 78 % 1025,6 hPa 0,0 l/m 0,1 km/h N -6,0 C -2,7 C 2,0 km/h
10.02.2011 04:00 -3,1 C 79 % 1025,5 hPa 0,0 l/m 0,0 km/h N -6,2 C -3,1 C 2,4 km/h
10.02.2011 05:00 -3,6 C 80 % 1025,6 hPa 0,0 l/m 0,0 km/h N -6,6 C -3,6 C 3,2 km/h
10.02.2011 06:00 -3,7 C 81 % 1025,7 hPa 0,0 l/m 0,0 km/h N -6,4 C -3,7 C 4,0 km/h
10.02.2011 07:00 -3,5 C 81 % 1025,8 hPa 0,0 l/m 0,0 km/h N -6,3 C -3,5 C 3,2 km/h
10.02.2011 08:00 -3,4 C 82 % 1025,8 hPa 0,0 l/m 0,0 km/h N -6,1 C -3,4 C 1,6 km/h
10.02.2011 09:00 0,1 C 80 % 1025,3 hPa 0,0 l/m 0,5 km/h O-SO -3,1 C 0,1 C 2,0 km/h
10.02.2011 10:00 1,9 C 73 % 1025,1 hPa 0,0 l/m 1,3 km/h O -2,4 C 1,9 C 5,2 km/h
10.02.2011 11:00 3,3 C 69 % 1024,8 hPa 0,0 l/m 2,0 km/h O-NO -1,8 C 3,3 C 6,0 km/h
10.02.2011 12:00 4,6 C 65 % 1024,1 hPa 0,0 l/m 2,0 km/h O -1,4 C 4,6 C 6,8 km/h
10.02.2011 13:00 5,9 C 63 % 1023,3 hPa 0,0 l/m 2,2 km/h SO -0,6 C 5,9 C 7,2 km/h
10.02.2011 14:00 6,7 C 61 % 1022,6 hPa 0,0 l/m 2,0 km/h S-SO -0,2 C 6,7 C 8,8 km/h
10.02.2011 15:00 6,9 C 61 % 1022,1 hPa 0,0 l/m 1,0 km/h S -0,1 C 6,9 C 6,8 km/h
10.02.2011 16:00 6,3 C 63 % 1021,6 hPa 0,0 l/m 0,6 km/h N -0,1 C 6,3 C 3,6 km/h
10.02.2011 17:00 4,9 C 65 % 1021,2 hPa 0,0 l/m 0,0 km/h N -1,3 C 4,9 C 0,0 km/h
10.02.2011 18:00 2,4 C 74 % 1021,0 hPa 0,0 l/m 0,3 km/h N -1,9 C 2,4 C 2,8 km/h
10.02.2011 19:00 2,1 C 78 % 1020,6 hPa 0,0 l/m 0,5 km/h N -1,4 C 2,1 C 3,2 km/h
10.02.2011 20:00 1,0 C 78 % 1019,9 hPa 0,0 l/m 0,1 km/h N -2,5 C 1,0 C 1,6 km/h
10.02.2011 21:00 0,5 C 81 % 1019,7 hPa 0,0 l/m 0,1 km/h N -2,4 C 0,5 C 1,6 km/h
10.02.2011 22:00 0,1 C 82 % 1019,3 hPa 0,0 l/m 0,0 km/h N -2,7 C 0,1 C 1,6 km/h
10.02.2011 23:00 -0,5 C 82 % 1018,9 hPa 0,0 l/m 0,0 km/h N -3,1 C -0,5 C 0,0 km/h
11.02.2011 00:00 -1,4 C 83 % 1018,6 hPa 0,0 l/m 0,0 km/h N -3,9 C -1,4 C 0,0 km/h
11.02.2011 01:00 -1,9 C 84 % 1017,9 hPa 0,0 l/m 0,0 km/h N -4,3 C -1,9 C 0,0 km/h
11.02.2011 02:00 -1,3 C 84 % 1017,3 hPa 0,0 l/m 0,0 km/h N -3,6 C -1,3 C 1,2 km/h
11.02.2011 03:00 -0,6 C 84 % 1016,8 hPa 0,0 l/m 0,0 km/h N -3,0 C -0,6 C 0,8 km/h
11.02.2011 04:00 -0,4 C 84 % 1016,1 hPa 0,0 l/m 0,0 km/h N -2,7 C -0,4 C 1,6 km/h
11.02.2011 05:00 0,2 C 84 % 1015,9 hPa 0,0 l/m 0,0 km/h N -2,2 C 0,2 C 0,8 km/h
11.02.2011 06:00 0,3 C 84 % 1015,5 hPa 0,0 l/m 0,3 km/h N -2,1 C 0,3 C 3,2 km/h
11.02.2011 07:00 0,6 C 84 % 1015,1 hPa 0,0 l/m 0,3 km/h N -1,7 C 0,6 C 4,4 km/h
11.02.2011 08:00 1,4 C 84 % 1015,2 hPa 0,0 l/m 0,5 km/h N -1,0 C 1,4 C 3,2 km/h
11.02.2011 09:00 3,2 C 84 % 1014,7 hPa 0,0 l/m 2,1 km/h W 0,7 C 3,2 C 8,4 km/h
11.02.2011 10:00 9,9 C 74 % 1014,1 hPa 0,0 l/m 8,9 km/h W 5,4 C 8,3 C 28,2 km/h
11.02.2011 11:00 12,0 C 61 % 1013,3 hPa 0,0 l/m 12,9 km/h SW 4,7 C 8,4 C 33,8 km/h
11.02.2011 12:00 13,6 C 56 % 1012,6 hPa 0,0 l/m 13,7 km/h W 4,9 C 10,0 C 36,2 km/h
11.02.2011 13:00 13,8 C 57 % 1012,0 hPa 0,0 l/m 17,4 km/h W 5,4 C 9,0 C 43,9 km/h
11.02.2011 14:00 13,0 C 63 % 1012,3 hPa 0,0 l/m 15,9 km/h W 6,1 C 8,5 C 36,6 km/h
11.02.2011 15:00 12,3 C 65 % 1011,8 hPa 0,0 l/m 14,8 km/h W-SW 5,8 C 8,0 C 37,0 km/h
11.02.2011 16:00 11,9 C 65 % 1011,6 hPa 0,0 l/m 14,9 km/h W-SW 5,5 C 7,5 C 41,4 km/h
11.02.2011 17:00 11,7 C 66 % 1011,3 hPa 0,3 l/m 12,0 km/h SW 5,5 C 8,5 C 30,6 km/h
11.02.2011 18:00 11,8 C 65 % 1011,0 hPa 0,0 l/m 12,1 km/h W-SW 5,5 C 8,5 C 33,8 km/h
11.02.2011 19:00 11,9 C 63 % 1010,3 hPa 0,0 l/m 9,8 km/h W 5,2 C 9,9 C 27,8 km/h
11.02.2011 20:00 12,3 C 60 % 1009,7 hPa 0,0 l/m 13,2 km/h W-NW 4,8 C 8,8 C 33,8 km/h
11.02.2011 21:00 11,6 C 64 % 1009,5 hPa 0,0 l/m 14,5 km/h W-SW 5,1 C 7,3 C 34,2 km/h
11.02.2011 22:00 11,5 C 64 % 1009,0 hPa 0,0 l/m 12,0 km/h SW 5,0 C 8,3 C 36,2 km/h
11.02.2011 23:00 11,3 C 64 % 1008,4 hPa 0,0 l/m 15,4 km/h W-SW 4,8 C 6,5 C 34,2 km/h
12.02.2011 00:00 11,3 C 66 % 1008,0 hPa 0,0 l/m 13,7 km/h W 5,1 C 7,3 C 36,6 km/h
12.02.2011 01:00 11,0 C 67 % 1007,8 hPa 0,0 l/m 12,9 km/h W-SW 5,1 C 7,3 C 29,4 km/h
12.02.2011 02:00 10,6 C 72 % 1008,5 hPa 0,3 l/m 10,2 km/h NW 5,6 C 8,1 C 30,6 km/h
12.02.2011 03:00 7,7 C 80 % 1010,1 hPa 3,1 l/m 9,3 km/h N 4,4 C 5,5 C 25,3 km/h
12.02.2011 04:00 4,2 C 83 % 1011,9 hPa 0,5 l/m 5,0 km/h NW 1,6 C 4,2 C 14,5 km/h
12.02.2011 05:00 4,0 C 82 % 1012,8 hPa 0,3 l/m 7,1 km/h W-NW 1,3 C 3,2 C 20,5 km/h
12.02.2011 06:00 4,3 C 78 % 1013,7 hPa 0,0 l/m 10,9 km/h NW 0,8 C 0,7 C 27,0 km/h
12.02.2011 07:00 3,8 C 70 % 1015,5 hPa 0,0 l/m 12,9 km/h NW -1,3 C -1,1 C 28,5 km/h
12.02.2011 08:00 2,6 C 68 % 1017,4 hPa 0,0 l/m 11,8 km/h N-NO -2,8 C -1,8 C 27,0 km/h
12.02.2011 09:00 2,3 C 64 % 1018,8 hPa 0,0 l/m 13,9 km/h NW -3,9 C -3,6 C 29,4 km/h
12.02.2011 10:00 2,8 C 62 % 1019,5 hPa 0,0 l/m 14,2 km/h NW -3,8 C -3,2 C 28,5 km/h
12.02.2011 11:00 2,8 C 57 % 1020,2 hPa 0,0 l/m 11,8 km/h NW -5,0 C -1,6 C 25,8 km/h
12.02.2011 12:00 3,5 C 54 % 1020,4 hPa 0,0 l/m 8,5 km/h NW -5,0 C 1,7 C 19,7 km/h
12.02.2011 13:00 3,4 C 52 % 1020,4 hPa 0,0 l/m 6,1 km/h NW -5,4 C 3,2 C 15,3 km/h
12.02.2011 14:00 3,3 C 52 % 1020,6 hPa 0,0 l/m 4,5 km/h NW -5,6 C 3,3 C 13,3 km/h
12.02.2011 15:00 3,3 C 52 % 1020,9 hPa 0,0 l/m 4,6 km/h W-SW -5,7 C 3,3 C 13,3 km/h
12.02.2011 16:00 2,8 C 52 % 1021,0 hPa 0,0 l/m 3,6 km/h NW -6,1 C 2,8 C 8,9 km/h
12.02.2011 17:00 2,3 C 54 % 1021,0 hPa 0,0 l/m 1,1 km/h N-NW -5,9 C 2,3 C 4,8 km/h
12.02.2011 18:00 1,1 C 60 % 1021,2 hPa 0,0 l/m 0,0 km/h N -5,9 C 1,1 C 0,8 km/h
12.02.2011 19:00 -0,4 C 66 % 1021,2 hPa 0,0 l/m 0,1 km/h N -6,0 C -0,4 C 0,8 km/h
12.02.2011 20:00 -1,3 C 71 % 1021,4 hPa 0,0 l/m 0,0 km/h N -5,9 C -1,3 C 1,2 km/h
12.02.2011 21:00 -1,6 C 74 % 1021,6 hPa 0,0 l/m 0,0 km/h N -5,7 C -1,6 C 0,4 km/h
12.02.2011 22:00 -1,7 C 76 % 1021,6 hPa 0,0 l/m 0,0 km/h N -5,4 C -1,7 C 0,0 km/h
12.02.2011 23:00 -1,3 C 77 % 1021,4 hPa 0,0 l/m 0,0 km/h N -4,8 C -1,3 C 0,4 km/h
13.02.2011 00:00 -0,6 C 72 % 1021,1 hPa 0,0 l/m 0,1 km/h N -5,0 C -0,6 C 3,7 km/h
13.02.2011 01:00 0,3 C 69 % 1020,6 hPa 0,0 l/m 0,0 km/h N -4,8 C 0,3 C 4,0 km/h
13.02.2011 02:00 0,4 C 68 % 1020,3 hPa 0,0 l/m 0,0 km/h N -4,9 C 0,4 C 4,0 km/h
13.02.2011 03:00 0,2 C 69 % 1019,7 hPa 0,0 l/m 0,0 km/h N -4,8 C 0,2 C 2,4 km/h
13.02.2011 04:00 0,0 C 69 % 1019,3 hPa 0,0 l/m 0,0 km/h N -5,0 C 0,0 C 3,2 km/h
13.02.2011 05:00 -0,1 C 68 % 1019,1 hPa 0,0 l/m 0,0 km/h N -5,2 C -0,1 C 4,8 km/h
13.02.2011 06:00 -0,2 C 66 % 1019,1 hPa 0,0 l/m 0,0 km/h N -5,8 C -0,2 C 5,6 km/h
13.02.2011 07:00 -0,5 C 66 % 1019,2 hPa 0,0 l/m 0,8 km/h O-SO -6,1 C -0,5 C 5,6 km/h
13.02.2011 08:00 -0,8 C 66 % 1019,3 hPa 0,0 l/m 1,6 km/h O-SO -6,3 C -0,8 C 6,4 km/h
13.02.2011 09:00 -0,8 C 66 % 1019,1 hPa 0,0 l/m 1,6 km/h O-SO -6,3 C -0,8 C 7,2 km/h
13.02.2011 10:00 -0,6 C 67 % 1018,8 hPa 0,0 l/m 1,6 km/h O -6,0 C -0,6 C 7,2 km/h
13.02.2011 11:00 -0,4 C 68 % 1018,5 hPa 0,0 l/m 3,2 km/h O-SO -5,6 C -0,4 C 8,9 km/h
13.02.2011 12:00 -0,1 C 69 % 1018,1 hPa 0,0 l/m 3,2 km/h O -5,0 C -0,1 C 6,4 km/h
13.02.2011 13:00 -0,4 C 75 % 1017,8 hPa 0,0 l/m 2,4 km/h O-SO -4,4 C -0,4 C 8,0 km/h
13.02.2011 14:00 -1,0 C 82 % 1017,6 hPa 0,0 l/m 0,0 km/h O-SO -3,7 C -1,0 C 4,8 km/h
13.02.2011 15:00 -1,1 C 84 % 1017,3 hPa 0,0 l/m 1,6 km/h O -3,5 C -1,1 C 5,6 km/h
13.02.2011 16:00 -1,1 C 84 % 1017,1 hPa 0,0 l/m 1,6 km/h O -3,4 C -1,1 C 4,8 km/h
13.02.2011 17:00 -1,1 C 84 % 1016,8 hPa 0,0 l/m 0,0 km/h N -3,4 C -1,1 C 3,2 km/h
13.02.2011 18:00 -0,9 C 84 % 1016,7 hPa 0,0 l/m 0,0 km/h N -3,2 C -0,9 C 0,8 km/h
13.02.2011 19:00 -0,6 C 84 % 1016,5 hPa 0,0 l/m 0,0 km/h N -3,0 C -0,6 C 4,0 km/h
13.02.2011 20:00 -0,4 C 84 % 1016,3 hPa 0,0 l/m 0,0 km/h N -2,7 C -0,4 C 3,2 km/h
13.02.2011 21:00 -0,3 C 83 % 1016,0 hPa 0,0 l/m 0,0 km/h N -2,8 C -0,3 C 4,8 km/h
13.02.2011 22:00 -0,3 C 83 % 1015,8 hPa 0,0 l/m 0,0 km/h N -2,9 C -0,3 C 4,8 km/h
13.02.2011 23:00 -0,2 C 83 % 1015,5 hPa 0,0 l/m 0,0 km/h N -2,8 C -0,2 C 5,6 km/h
Min-Datum _ 10.02.11 07.02.11 12.02.11 - 07.02.11 - 10.02.11 12.02.11 07.02.11
_ Min-Zeit 05:30 12:15 00:45 - 16:45 - 05:30 09:30 17:00
Minimum _ -3,7 C 21 % 1007,8 hPa - 0,0 km/h - -6,6 C -4,4 C 0,0 km/h
Max-Datum _ 07.02.11 09.02.11 10.02.11 12.02.11 08.02.11 - 11.02.11 07.02.11 11.02.11
_ Max-Zeit 12:30 05:30 07:30 03:30 10:45 - 14:30 12:30 13:30
Maximum _ 17,7 C 84 % 1025,9 hPa 3,1 l/m 18,2 km/h
W-SW
- 6,3 C 17,7 C 49,9 km/h
W-SW
Durchschnitt _ 4,4 C 66 % 1019,8 hPa #4,4 l/m 3,9 km/h NW -1,9 C 3,6 C 11,4 km/h